INFORMACIÓN METAR y TAF
METAR FOR GCHI
ADDS - METARS form results

(0204 UTC 15 November 2019)
Data provider http://aviationweather.gov/metar/data/
 
METAR text: GCHI 150200Z AUTO 04023KT 9999 BKN028 BKN048 21/16 Q1018
Conditions at: GCHI (HIERRO AIRPORT , ES) observed 0200 UTC 15 November 2019
Temperature: 21.0°C (70°F)
Dewpoint: 16.0°C (61°F) [RH = 73%]
Pressure (altimeter): 30.06 inches Hg (1018.0 mb)
Winds: from the NE (40 degrees) at 26 MPH (23 knots; 11.8 m/s)
Visibility: 6 or more miles (10+ km)
Ceiling: 2800 feet AGL
Clouds: broken clouds at 2800 feet AGL
broken clouds at 4800 feet AGL
Weather: no significant weather observed at this time

METAR text: GCHI 150130Z AUTO 03023KT 9999 BKN026 BKN032 OVC058 21/16 Q1018
Conditions at: GCHI (HIERRO AIRPORT , ES) observed 0130 UTC 15 November 2019
Temperature: 21.0°C (70°F)
Dewpoint: 16.0°C (61°F) [RH = 73%]
Pressure (altimeter): 30.06 inches Hg (1018.0 mb)
Winds: from the NNE (30 degrees) at 26 MPH (23 knots; 11.8 m/s)
Visibility: 6 or more miles (10+ km)
Ceiling: 2600 feet AGL
Clouds: broken clouds at 2600 feet AGL
broken clouds at 3200 feet AGL
overcast cloud deck at 5800 feet AGL
Weather: no significant weather observed at this time

Forecast for: GCHI (HIERRO AIRPORT , ES)
Text: TAF GCHI 142000Z 1421/1521 03018KT 9999 BKN020 TX22/1515Z TN19/1506Z
Forecast period: 2100 UTC 14 November 2019 to 2100 UTC 15 November 2019
Forecast type: FROM: standard forecast or significant change
Winds: from the NNE (30 degrees) at 21 MPH (18 knots; 9.3 m/s)
Visibility: 6 or more miles 10+ km)
Ceiling: 2000 feet AGL
Clouds: broken clouds at 2000 feet AGL
Weather: no significant weather forecast for this period
Text: PROB30
Forecast period: 0200 to 0600 UTC 15 November 2019
Forecast type: TEMPORARY: The following changes expected for less than half the time period
Winds: from the NE (40 degrees) at 22 MPH (19 knots; 9.8 m/s)
gusting to 33 MPH (29 knots; 14.9 m/s)
Visibility: missing
Ceiling: unknown
Clouds: missing
Weather: no significant weather forecast for this period

 MAPA DE AEROPUERTO

 INFORMACIÓN DE PISTA
Pista 16 Longitud 4101 ft Ancho 98 ft
Elevación 71 ft Umbral desplazado 0 ft Rumbo de pista 153
Pista 34 Longitud 4101 ft Ancho 98 ft
Elevación 103 ft Umbral desplazado 0 ft Rumbo de pista 333

 FRECUANCIAS DEL AEROPUERTO
Tipo A/D Nombre CANARIAS A Frecuencia 126.1 MHZ
Tipo GND Nombre GND Frecuencia 121.6 MHZ
Tipo TWR Nombre TWR Frecuencia 118.1 MHZ

 RADIO AYUDAS DEL AEROPUERTO
Tipo NDB Nombre Hierro Frecuencia 376 KHZ
Tipo DME Nombre Hierro Frecuencia 113200 KHZ




Powered by Virtual Airlines Manager